Terminal Aerodrome Forecast
Issued by NWS Paducah, KY

Home | Current Version | Previous Version | Text Only | Print | Product List | Glossary On
Versions: 1 2 3 4 5 6 7 8 9 10 11 12 13 14 15 16 17 18
023
FTUS43 KPAH 190520
TAFEVV
TAF
KEVV 190520Z 1906/2006 25003KT P6SM SCT120
     FM190900 25003KT P6SM SCT060 BKN120
     FM191300 27006KT P6SM FEW030
     FM191700 30005KT P6SM SCT040
     FM200000 VRB02KT P6SM FEW040=

USA.gov is the U.S. government's official web portal to all federal, state and local government web resources and services.